Time,TemperatureF,DewpointF,PressureIn,WindDirection,WindDirectionDegrees,WindSpeedMPH,WindSpeedGustMPH,Humidity,HourlyPrecipIn,Conditions,Clouds,dailyrainin,SoftwareType,DateUTC
2013-02-25 00:00:00,72.6,71.4,29.89,NE,56,2.0,8.0,96,0.00,,,0.00,VWS V14.01,2013-02-25 06:00:00,
2013-02-25 00:05:00,72.7,71.5,29.89,ENE,63,3.0,4.0,96,0.00,,,0.00,VWS V14.01,2013-02-25 06:05:00,
2013-02-25 00:10:00,72.7,71.5,29.89,ENE,63,3.0,5.0,96,0.00,,,0.00,VWS V14.01,2013-02-25 06:10:00,
2013-02-25 00:15:00,72.7,71.5,29.89,ENE,57,3.0,6.0,96,0.00,,,0.00,VWS V14.01,2013-02-25 06:15:00,
2013-02-25 00:20:00,72.7,71.5,29.89,NE,50,2.0,6.0,96,0.00,,,0.00,VWS V14.01,2013-02-25 06:20:00,
2013-02-25 00:25:00,72.7,71.5,29.89,East,98,2.0,6.0,96,0.00,,,0.00,VWS V14.01,2013-02-25 06:25:00,
2013-02-25 00:30:00,72.7,71.5,29.90,North,11,2.0,6.0,96,0.00,,,0.00,VWS V14.01,2013-02-25 06:30:00,
2013-02-25 00:35:00,72.7,71.5,29.89,ENE,68,2.0,2.0,96,0.00,,,0.00,VWS V14.01,2013-02-25 06:35:00,
2013-02-25 00:40:00,72.7,71.5,29.88,ENE,78,3.0,4.0,96,0.00,,,0.00,VWS V14.01,2013-02-25 06:40:00,
2013-02-25 00:45:00,72.7,71.5,29.88,NE,53,4.0,4.0,96,0.00,,,0.00,VWS V14.01,2013-02-25 06:45:00,
2013-02-25 00:50:00,72.7,71.5,29.88,ENE,58,2.0,5.0,96,0.00,,,0.00,VWS V14.01,2013-02-25 06:50:00,
2013-02-25 00:55:00,72.7,71.5,29.89,NE,56,2.0,5.0,96,0.00,,,0.00,VWS V14.01,2013-02-25 06:55:00,
2013-02-25 01:00:00,72.6,71.4,29.88,NE,50,2.0,5.0,96,0.00,,,0.00,VWS V14.01,2013-02-25 07:00:00,
2013-02-25 01:05:00,72.6,71.4,29.88,ENE,61,2.0,3.0,96,0.00,,,0.00,VWS V14.01,2013-02-25 07:05:00,
2013-02-25 01:10:00,72.6,71.4,29.87,ENE,77,1.0,4.0,96,0.00,,,0.00,VWS V14.01,2013-02-25 07:10:00,
2013-02-25 01:15:00,72.6,71.4,29.87,ENE,70,3.0,4.0,96,0.00,,,0.00,VWS V14.01,2013-02-25 07:15:00,
2013-02-25 01:20:00,72.6,71.4,29.86,East,81,1.0,4.0,96,0.00,,,0.00,VWS V14.01,2013-02-25 07:20:00,
2013-02-25 01:25:00,72.6,71.4,29.86,ENE,70,2.0,4.0,96,0.00,,,0.00,VWS V14.01,2013-02-25 07:25:00,
2013-02-25 01:30:00,72.7,71.5,29.87,ENE,74,1.0,4.0,96,0.00,,,0.00,VWS V14.01,2013-02-25 07:30:00,
2013-02-25 01:35:00,72.7,71.5,29.87,ENE,65,2.0,2.0,96,0.00,,,0.00,VWS V14.01,2013-02-25 07:35:00,
2013-02-25 01:40:00,72.6,71.4,29.87,ENE,70,0.0,2.0,96,0.00,,,0.00,VWS V14.01,2013-02-25 07:40:00,
2013-02-25 01:45:00,72.6,71.4,29.86,ENE,65,3.0,3.0,96,0.00,,,0.00,VWS V14.01,2013-02-25 07:45:00,
2013-02-25 01:50:00,72.6,71.4,29.86,ENE,77,1.0,3.0,96,0.00,,,0.00,VWS V14.01,2013-02-25 07:50:00,
2013-02-25 01:55:00,72.6,71.4,29.85,ENE,63,2.0,3.0,96,0.00,,,0.00,VWS V14.01,2013-02-25 07:55:00,
2013-02-25 02:00:00,72.7,71.5,29.85,NE,53,1.0,6.0,96,0.00,,,0.00,VWS V14.01,2013-02-25 08:00:00,
2013-02-25 02:05:00,72.7,71.5,29.85,East,89,3.0,4.0,96,0.00,,,0.00,VWS V14.01,2013-02-25 08:05:00,
2013-02-25 02:10:00,72.8,71.6,29.85,NE,52,2.0,5.0,96,0.00,,,0.00,VWS V14.01,2013-02-25 08:10:00,
2013-02-25 02:15:00,72.8,71.6,29.85,ENE,70,2.0,5.0,96,0.00,,,0.00,VWS V14.01,2013-02-25 08:15:00,
2013-02-25 02:20:00,72.8,71.6,29.85,ENE,65,2.0,5.0,96,0.00,,,0.00,VWS V14.01,2013-02-25 08:20:00,
2013-02-25 02:25:00,72.9,71.4,29.86,ENE,68,2.0,5.0,95,0.00,,,0.00,VWS V14.01,2013-02-25 08:25:00,
2013-02-25 02:30:00,72.9,71.4,29.86,East,81,1.0,5.0,95,0.00,,,0.00,VWS V14.01,2013-02-25 08:30:00,
2013-02-25 02:35:00,73.0,71.5,29.87,NE,56,1.0,3.0,95,0.00,,,0.00,VWS V14.01,2013-02-25 08:35:00,
2013-02-25 02:40:00,73.0,71.5,29.87,ENE,65,1.0,3.0,95,0.00,,,0.00,VWS V14.01,2013-02-25 08:40:00,
2013-02-25 02:45:00,73.0,71.5,29.86,East,100,0.0,3.0,95,0.00,,,0.00,VWS V14.01,2013-02-25 08:45:00,
2013-02-25 02:50:00,73.0,71.5,29.86,East,91,0.0,3.0,95,0.00,,,0.00,VWS V14.01,2013-02-25 08:50:00,
2013-02-25 02:55:00,73.0,71.5,29.85,East,99,1.0,3.0,95,0.00,,,0.00,VWS V14.01,2013-02-25 08:55:00,
2013-02-25 03:00:00,73.1,71.6,29.85,East,92,2.0,4.0,95,0.00,,,0.00,VWS V14.01,2013-02-25 09:00:00,
2013-02-25 03:05:00,73.1,71.6,29.84,NE,56,3.0,5.0,95,0.00,,,0.00,VWS V14.01,2013-02-25 09:05:00,
2013-02-25 03:10:00,73.2,71.7,29.84,ENE,78,3.0,5.0,95,0.00,,,0.00,VWS V14.01,2013-02-25 09:10:00,
2013-02-25 03:15:00,73.3,71.8,29.85,East,86,1.0,5.0,95,0.00,,,0.00,VWS V14.01,2013-02-25 09:15:00,
2013-02-25 03:20:00,73.4,71.9,29.85,East,90,2.0,5.0,95,0.00,,,0.00,VWS V14.01,2013-02-25 09:20:00,
2013-02-25 03:25:00,73.4,71.9,29.85,ESE,107,0.0,5.0,95,0.00,,,0.00,VWS V14.01,2013-02-25 09:25:00,
2013-02-25 03:30:00,73.5,72.0,29.85,East,85,0.0,5.0,95,0.00,,,0.00,VWS V14.01,2013-02-25 09:30:00,
2013-02-25 03:35:00,73.5,71.7,29.84,ESE,104,1.0,5.0,94,0.00,,,0.00,VWS V14.01,2013-02-25 09:35:00,
2013-02-25 03:40:00,73.5,71.7,29.84,East,98,1.0,5.0,94,0.00,,,0.00,VWS V14.01,2013-02-25 09:40:00,
2013-02-25 03:45:00,73.5,71.7,29.85,East,98,0.0,5.0,94,0.00,,,0.00,VWS V14.01,2013-02-25 09:45:00,
2013-02-25 03:50:00,73.6,71.8,29.84,East,91,1.0,5.0,94,0.00,,,0.00,VWS V14.01,2013-02-25 09:50:00,
2013-02-25 03:55:00,73.5,71.7,29.85,NE,43,0.0,5.0,94,0.00,,,0.00,VWS V14.01,2013-02-25 09:55:00,
2013-02-25 04:00:00,73.5,71.7,29.84,NE,46,1.0,5.0,94,0.00,,,0.00,VWS V14.01,2013-02-25 10:00:00,
2013-02-25 04:05:00,73.5,72.0,29.84,NNE,32,3.0,3.0,95,0.00,,,0.00,VWS V14.01,2013-02-25 10:05:00,
2013-02-25 04:10:00,73.4,71.9,29.84,NE,40,3.0,3.0,95,0.00,,,0.00,VWS V14.01,2013-02-25 10:10:00,
2013-02-25 04:15:00,73.4,71.9,29.84,NE,39,2.0,3.0,95,0.00,,,0.00,VWS V14.01,2013-02-25 10:15:00,
2013-02-25 04:20:00,73.3,71.8,29.84,NE,42,1.0,3.0,95,0.00,,,0.00,VWS V14.01,2013-02-25 10:20:00,
2013-02-25 04:25:00,73.3,71.8,29.84,ENE,75,1.0,3.0,95,0.00,,,0.00,VWS V14.01,2013-02-25 10:25:00,
2013-02-25 04:30:00,73.1,71.6,29.84,ENE,77,0.0,3.0,95,0.00,,,0.00,VWS V14.01,2013-02-25 10:30:00,
2013-02-25 04:35:00,73.1,71.9,29.84,ENE,77,0.0,2.0,96,0.00,,,0.00,VWS V14.01,2013-02-25 10:35:00,
2013-02-25 04:40:00,73.0,71.8,29.84,ENE,77,1.0,2.0,96,0.00,,,0.00,VWS V14.01,2013-02-25 10:40:00,
2013-02-25 04:45:00,73.0,71.8,29.84,ENE,77,1.0,2.0,96,0.00,,,0.00,VWS V14.01,2013-02-25 10:45:00,
2013-02-25 05:00:00,71.5,70.6,29.85,SSE,152,0.0,2.0,97,0.00,,,0.00,VWS V14.01,2013-02-25 11:00:00,
2013-02-25 05:09:00,72.9,71.7,29.84,ENE,77,1.0,2.0,96,0.00,,,0.00,VWS V14.01,2013-02-25 11:09:00,
2013-02-25 05:14:00,72.3,71.4,29.85,ESE,102,0.0,2.0,97,0.00,,,0.00,VWS V14.01,2013-02-25 11:14:00,
2013-02-25 05:19:00,72.3,71.4,29.85,ESE,102,0.0,2.0,97,0.00,,,0.00,VWS V14.01,2013-02-25 11:19:00,
2013-02-25 05:24:00,72.3,71.4,29.85,ESE,103,1.0,2.0,97,0.00,,,0.00,VWS V14.01,2013-02-25 11:24:00,
2013-02-25 05:29:00,72.2,71.3,29.85,ESE,102,1.0,2.0,97,0.00,,,0.00,VWS V14.01,2013-02-25 11:29:00,
2013-02-25 05:30:00,70.8,70.2,29.86,SW,218,2.0,6.0,98,0.00,,,0.00,VWS V14.01,2013-02-25 11:30:00,
2013-02-25 05:34:00,72.2,71.3,29.85,ESE,105,1.0,1.0,97,0.00,,,0.00,VWS V14.01,2013-02-25 11:34:00,
2013-02-25 05:39:00,72.0,71.1,29.85,ESE,115,0.0,2.0,97,0.00,,,0.00,VWS V14.01,2013-02-25 11:39:00,
2013-02-25 05:44:00,71.8,70.9,29.85,SE,129,1.0,2.0,97,0.00,,,0.00,VWS V14.01,2013-02-25 11:44:00,
2013-02-25 05:49:00,71.7,70.8,29.85,SSE,152,0.0,2.0,97,0.00,,,0.00,VWS V14.01,2013-02-25 11:49:00,
2013-02-25 05:54:00,71.6,70.7,29.85,SSE,152,0.0,2.0,97,0.00,,,0.00,VWS V14.01,2013-02-25 11:54:00,
2013-02-25 05:59:00,71.5,70.6,29.85,SSE,152,0.0,2.0,97,0.00,,,0.00,VWS V14.01,2013-02-25 11:59:00,
2013-02-25 06:00:00,70.4,69.8,29.89,WSW,249,2.0,7.0,98,0.00,,,0.00,VWS V14.01,2013-02-25 12:00:00,
2013-02-25 06:04:00,71.4,70.5,29.86,SSE,152,0.0,1.0,97,0.00,,,0.00,VWS V14.01,2013-02-25 12:04:00,
2013-02-25 06:09:00,71.3,70.4,29.85,SSE,162,1.0,2.0,97,0.00,,,0.00,VWS V14.01,2013-02-25 12:09:00,
2013-02-25 06:14:00,71.1,70.2,29.86,WSW,237,2.0,3.0,97,0.00,,,0.00,VWS V14.01,2013-02-25 12:14:00,
2013-02-25 06:19:00,71.0,70.1,29.86,SW,226,1.0,4.0,97,0.00,,,0.00,VWS V14.01,2013-02-25 12:19:00,
2013-02-25 06:24:00,70.9,70.3,29.86,SSW,203,5.0,5.0,98,0.00,,,0.00,VWS V14.01,2013-02-25 12:24:00,
2013-02-25 06:29:00,70.8,70.2,29.86,SSW,207,2.0,6.0,98,0.00,,,0.00,VWS V14.01,2013-02-25 12:29:00,
2013-02-25 06:30:00,70.5,69.9,29.89,WSW,242,1.0,7.0,98,0.00,,,0.00,VWS V14.01,2013-02-25 12:30:00,
2013-02-25 06:34:00,70.7,70.1,29.86,SSW,208,2.0,5.0,98,0.00,,,0.00,VWS V14.01,2013-02-25 12:34:00,
2013-02-25 06:39:00,70.6,70.0,29.87,SW,233,0.0,5.0,98,0.00,,,0.00,VWS V14.01,2013-02-25 12:39:00,
2013-02-25 06:44:00,70.5,69.9,29.87,SSE,167,4.0,5.0,98,0.00,,,0.00,VWS V14.01,2013-02-25 12:44:00,
2013-02-25 06:49:00,70.4,69.8,29.88,WSW,239,0.0,7.0,98,0.00,,,0.00,VWS V14.01,2013-02-25 12:49:00,
2013-02-25 06:54:00,70.3,69.7,29.88,WSW,255,1.0,7.0,98,0.00,,,0.00,VWS V14.01,2013-02-25 12:54:00,
2013-02-25 06:59:00,70.3,69.7,29.89,WSW,240,2.0,7.0,98,0.00,,,0.00,VWS V14.01,2013-02-25 12:59:00,
2013-02-25 07:00:00,72.0,71.1,29.89,WSW,241,3.0,7.0,97,0.00,,,0.00,VWS V14.01,2013-02-25 13:00:00,
2013-02-25 07:05:00,70.2,69.6,29.90,SW,224,3.0,6.0,98,0.00,,,0.00,VWS V14.01,2013-02-25 13:05:00,
2013-02-25 07:10:00,70.1,69.5,29.90,SSW,212,3.0,7.0,98,0.00,,,0.00,VWS V14.01,2013-02-25 13:10:00,
2013-02-25 07:15:00,70.1,69.5,29.90,SSW,201,1.0,7.0,98,0.00,,,0.00,VWS V14.01,2013-02-25 13:15:00,
2013-02-25 07:20:00,70.2,69.9,29.89,West,259,0.0,7.0,99,0.00,,,0.00,VWS V14.01,2013-02-25 13:20:00,
2013-02-25 07:25:00,70.4,69.8,29.89,SW,224,4.0,7.0,98,0.00,,,0.00,VWS V14.01,2013-02-25 13:25:00,
2013-02-25 07:30:00,70.5,69.9,29.89,WSW,242,1.0,7.0,98,0.00,,,0.00,VWS V14.01,2013-02-25 13:30:00,
2013-02-25 07:35:00,70.7,70.1,29.88,SSE,149,4.0,4.0,98,0.00,,,0.00,VWS V14.01,2013-02-25 13:35:00,
2013-02-25 07:40:00,70.9,70.3,29.89,SSE,154,3.0,5.0,98,0.00,,,0.00,VWS V14.01,2013-02-25 13:40:00,
2013-02-25 07:45:00,71.2,70.6,29.89,SW,230,4.0,5.0,98,0.00,,,0.00,VWS V14.01,2013-02-25 13:45:00,
2013-02-25 07:50:00,71.6,71.0,29.89,SSW,207,2.0,7.0,98,0.00,,,0.00,VWS V14.01,2013-02-25 13:50:00,
2013-02-25 07:55:00,72.0,71.4,29.89,SW,218,3.0,7.0,98,0.00,,,0.00,VWS V14.01,2013-02-25 13:55:00,
2013-02-25 08:00:00,72.0,71.1,29.89,West,270,2.0,7.0,97,0.00,,,0.00,VWS V14.01,2013-02-25 14:00:00,
2013-02-25 08:05:00,72.4,71.5,29.89,SW,214,3.0,7.0,97,0.00,,,0.00,VWS V14.01,2013-02-25 14:05:00,
2013-02-25 08:10:00,73.0,72.1,29.89,SW,222,3.0,7.0,97,0.00,,,0.00,VWS V14.01,2013-02-25 14:10:00,
2013-02-25 08:15:00,73.7,72.2,29.90,SW,222,5.0,7.0,95,0.00,,,0.00,VWS V14.01,2013-02-25 14:15:00,
2013-02-25 08:20:00,74.5,72.0,29.90,WSW,239,3.0,7.0,92,0.00,,,0.00,VWS V14.01,2013-02-25 14:20:00,
2013-02-25 08:25:00,75.2,71.7,29.89,SW,215,4.0,7.0,89,0.00,,,0.00,VWS V14.01,2013-02-25 14:25:00,
2013-02-25 08:30:00,76.2,72.1,29.89,SE,136,5.0,7.0,87,0.00,,,0.00,VWS V14.01,2013-02-25 14:30:00,
2013-02-25 08:35:00,76.7,71.5,29.90,West,259,7.0,9.0,84,0.00,,,0.00,VWS V14.01,2013-02-25 14:35:00,
2013-02-25 08:40:00,76.9,71.0,29.89,West,271,5.0,9.0,82,0.00,,,0.00,VWS V14.01,2013-02-25 14:40:00,
2013-02-25 08:45:00,77.2,71.6,29.89,SSW,208,2.0,9.0,83,0.00,,,0.00,VWS V14.01,2013-02-25 14:45:00,
2013-02-25 08:50:00,77.9,71.2,29.89,SW,233,2.0,9.0,80,0.00,,,0.00,VWS V14.01,2013-02-25 14:50:00,
2013-02-25 08:55:00,78.6,71.2,29.89,SSE,160,7.0,9.0,78,0.00,,,0.00,VWS V14.01,2013-02-25 14:55:00,
2013-02-25 09:00:00,79.0,70.0,29.89,WSW,249,4.0,8.0,74,0.00,,,0.00,VWS V14.01,2013-02-25 15:00:00,
2013-02-25 09:05:00,79.2,69.8,29.89,WSW,242,9.0,13.0,73,0.00,,,0.00,VWS V14.01,2013-02-25 15:05:00,
2013-02-25 09:10:00,79.2,69.8,29.89,WSW,239,5.0,13.0,73,0.00,,,0.00,VWS V14.01,2013-02-25 15:10:00,
2013-02-25 09:15:00,79.7,70.3,29.89,SSW,200,6.0,13.0,73,0.00,,,0.00,VWS V14.01,2013-02-25 15:15:00,
2013-02-25 09:20:00,80.1,69.9,29.89,South,176,10.0,13.0,71,0.00,,,0.00,VWS V14.01,2013-02-25 15:20:00,
2013-02-25 09:25:00,80.1,69.9,29.89,South,176,3.0,13.0,71,0.00,,,0.00,VWS V14.01,2013-02-25 15:25:00,
2013-02-25 09:30:00,80.3,70.1,29.89,ESE,116,4.0,4.0,71,0.00,,,0.00,VWS V14.01,2013-02-25 15:30:00,
2013-02-25 09:35:00,80.4,69.7,29.88,WSW,243,5.0,12.0,70,0.00,,,0.00,VWS V14.01,2013-02-25 15:35:00,
2013-02-25 09:40:00,80.6,69.1,29.89,SSW,205,5.0,12.0,68,0.00,,,0.00,VWS V14.01,2013-02-25 15:40:00,
2013-02-25 09:45:00,80.8,69.3,29.88,South,177,6.0,15.0,68,0.00,,,0.00,VWS V14.01,2013-02-25 15:45:00,
2013-02-25 09:50:00,81.0,69.0,29.88,SSW,207,12.0,15.0,67,0.00,,,0.00,VWS V14.01,2013-02-25 15:50:00,
2013-02-25 09:55:00,81.3,69.7,29.88,SW,226,13.0,15.0,68,0.00,,,0.00,VWS V14.01,2013-02-25 15:55:00,
2013-02-25 10:00:00,81.2,69.6,29.88,SSW,211,5.0,15.0,68,0.00,,,0.00,VWS V14.01,2013-02-25 16:00:00,
2013-02-25 10:05:00,81.5,69.9,29.88,SSW,197,8.0,13.0,68,0.00,,,0.00,VWS V14.01,2013-02-25 16:05:00,
2013-02-25 10:10:00,81.6,70.0,29.88,WSW,248,7.0,13.0,68,0.00,,,0.00,VWS V14.01,2013-02-25 16:10:00,
2013-02-25 10:15:00,81.8,70.2,29.88,SW,217,4.0,13.0,68,0.00,,,0.00,VWS V14.01,2013-02-25 16:15:00,
2013-02-25 10:20:00,82.4,70.3,29.87,South,190,3.0,13.0,67,0.00,,,0.00,VWS V14.01,2013-02-25 16:20:00,
2013-02-25 10:25:00,83.0,69.6,29.87,South,176,10.0,16.0,64,0.00,,,0.00,VWS V14.01,2013-02-25 16:25:00,
2013-02-25 10:30:00,83.0,70.5,29.87,SSE,156,1.0,3.0,66,0.00,,,0.00,VWS V14.01,2013-02-25 16:30:00,
2013-02-25 10:35:00,83.0,70.5,29.87,SE,127,2.0,10.0,66,0.00,,,0.00,VWS V14.01,2013-02-25 16:35:00,
2013-02-25 10:40:00,83.2,70.2,29.87,WSW,256,12.0,12.0,65,0.00,,,0.00,VWS V14.01,2013-02-25 16:40:00,
2013-02-25 10:45:00,82.7,69.3,29.87,SW,215,11.0,14.0,64,0.00,,,0.00,VWS V14.01,2013-02-25 16:45:00,
2013-02-25 10:50:00,83.0,69.6,29.87,SSW,193,4.0,14.0,64,0.00,,,0.00,VWS V14.01,2013-02-25 16:50:00,
2013-02-25 10:55:00,82.9,69.0,29.86,South,190,5.0,14.0,63,0.00,,,0.00,VWS V14.01,2013-02-25 16:55:00,
2013-02-25 11:00:00,83.3,68.5,29.87,SW,215,11.0,11.0,61,0.00,,,0.00,VWS V14.01,2013-02-25 17:00:00,
2013-02-25 11:05:00,82.8,68.9,29.86,SSW,201,8.0,12.0,63,0.00,,,0.00,VWS V14.01,2013-02-25 17:05:00,
2013-02-25 11:10:00,82.3,68.9,29.87,SSW,212,5.0,12.0,64,0.00,,,0.00,VWS V14.01,2013-02-25 17:10:00,
2013-02-25 11:15:00,82.2,68.8,29.86,South,183,6.0,12.0,64,0.00,,,0.00,VWS V14.01,2013-02-25 17:15:00,
2013-02-25 11:20:00,82.3,68.0,29.86,SSE,148,4.0,12.0,62,0.00,,,0.00,VWS V14.01,2013-02-25 17:20:00,
2013-02-25 11:25:00,83.0,68.7,29.85,SSE,159,2.0,12.0,62,0.00,,,0.00,VWS V14.01,2013-02-25 17:25:00,
2013-02-25 11:30:00,83.3,67.5,29.85,SW,214,8.0,9.0,59,0.00,,,0.00,VWS V14.01,2013-02-25 17:30:00,
2013-02-25 11:35:00,83.3,68.5,29.85,SW,232,7.0,9.0,61,0.00,,,0.00,VWS V14.01,2013-02-25 17:35:00,
2013-02-25 11:40:00,83.3,68.0,29.85,WSW,238,5.0,9.0,60,0.00,,,0.00,VWS V14.01,2013-02-25 17:40:00,
2013-02-25 11:45:00,83.0,68.7,29.85,West,266,5.0,9.0,62,0.00,,,0.00,VWS V14.01,2013-02-25 17:45:00,
2013-02-25 11:50:00,83.5,70.1,29.85,SSE,150,8.0,10.0,64,0.00,,,0.00,VWS V14.01,2013-02-25 17:50:00,
2013-02-25 11:55:00,83.4,69.5,29.84,SSE,160,1.0,10.0,63,0.00,,,0.00,VWS V14.01,2013-02-25 17:55:00,
2013-02-25 12:00:00,83.4,69.0,29.84,SSE,153,4.0,4.0,62,0.00,,,0.00,VWS V14.01,2013-02-25 18:00:00,
2013-02-25 12:05:00,83.1,71.9,29.84,ESE,120,3.0,7.0,69,0.00,,,0.00,VWS V14.01,2013-02-25 18:05:00,
2013-02-25 12:10:00,81.6,72.1,29.84,ESE,117,3.0,11.0,73,0.00,,,0.00,VWS V14.01,2013-02-25 18:10:00,
2013-02-25 12:15:00,81.4,72.7,29.84,East,91,2.0,11.0,75,0.00,,,0.00,VWS V14.01,2013-02-25 18:15:00,
2013-02-25 12:20:00,81.9,70.3,29.84,SSW,197,2.0,11.0,68,0.00,,,0.00,VWS V14.01,2013-02-25 18:20:00,
2013-02-25 12:25:00,82.8,72.0,29.84,ESE,120,11.0,12.0,70,0.00,,,0.00,VWS V14.01,2013-02-25 18:25:00,
2013-02-25 12:30:00,81.7,72.6,29.83,SE,129,4.0,6.0,74,0.00,,,0.00,VWS V14.01,2013-02-25 18:30:00,
2013-02-25 12:35:00,80.7,72.8,29.83,SE,145,6.0,14.0,77,0.00,,,0.00,VWS V14.01,2013-02-25 18:35:00,
2013-02-25 12:40:00,80.3,73.2,29.83,East,95,11.0,14.0,79,0.00,,,0.00,VWS V14.01,2013-02-25 18:40:00,
2013-02-25 12:45:00,80.0,73.3,29.83,ESE,117,6.0,14.0,80,0.00,,,0.00,VWS V14.01,2013-02-25 18:45:00,
2013-02-25 12:50:00,79.8,73.1,29.83,ESE,113,7.0,14.0,80,0.00,,,0.00,VWS V14.01,2013-02-25 18:50:00,
2013-02-25 12:55:00,79.7,73.4,29.82,East,91,15.0,15.0,81,0.00,,,0.00,VWS V14.01,2013-02-25 18:55:00,
2013-02-25 13:00:00,79.2,73.2,29.82,SE,125,2.0,5.0,82,0.00,,,0.00,VWS V14.01,2013-02-25 19:00:00,
2013-02-25 13:05:00,79.0,73.4,29.82,ESE,111,10.0,10.0,83,0.00,,,0.00,VWS V14.01,2013-02-25 19:05:00,
2013-02-25 13:10:00,78.9,73.3,29.82,SE,124,9.0,12.0,83,0.00,,,0.00,VWS V14.01,2013-02-25 19:10:00,
2013-02-25 13:15:00,79.5,73.9,29.82,ESE,122,4.0,12.0,83,0.00,,,0.00,VWS V14.01,2013-02-25 19:15:00,
2013-02-25 13:20:00,79.9,73.9,29.82,SSE,151,9.0,12.0,82,0.00,,,0.00,VWS V14.01,2013-02-25 19:20:00,
2013-02-25 13:25:00,79.6,73.6,29.82,ESE,112,7.0,12.0,82,0.00,,,0.00,VWS V14.01,2013-02-25 19:25:00,
2013-02-25 13:30:00,79.4,73.1,29.82,ESE,123,5.0,5.0,81,0.00,,,0.00,VWS V14.01,2013-02-25 19:30:00,
2013-02-25 13:35:00,79.1,73.1,29.82,East,98,7.0,14.0,82,0.00,,,0.00,VWS V14.01,2013-02-25 19:35:00,
2013-02-25 13:40:00,78.9,73.3,29.82,East,96,5.0,14.0,83,0.00,,,0.00,VWS V14.01,2013-02-25 19:40:00,
2013-02-25 13:45:00,78.8,73.2,29.82,East,96,10.0,14.0,83,0.00,,,0.00,VWS V14.01,2013-02-25 19:45:00,
2013-02-25 13:50:00,78.6,73.0,29.81,East,97,8.0,14.0,83,0.00,,,0.00,VWS V14.01,2013-02-25 19:50:00,
2013-02-25 13:55:00,78.3,73.1,29.81,ESE,105,8.0,14.0,84,0.00,,,0.00,VWS V14.01,2013-02-25 19:55:00,
2013-02-25 14:00:00,78.3,73.1,29.81,ESE,117,8.0,9.0,84,0.00,,,0.00,VWS V14.01,2013-02-25 20:00:00,
2013-02-25 14:05:00,78.8,73.6,29.81,East,87,8.0,13.0,84,0.00,,,0.00,VWS V14.01,2013-02-25 20:05:00,
2013-02-25 14:10:00,78.9,73.3,29.80,ESE,122,5.0,15.0,83,0.00,,,0.00,VWS V14.01,2013-02-25 20:10:00,
2013-02-25 14:15:00,79.1,73.1,29.80,ESE,108,14.0,15.0,82,0.00,,,0.00,VWS V14.01,2013-02-25 20:15:00,
2013-02-25 14:20:00,79.1,73.5,29.81,ESE,113,2.0,17.0,83,0.00,,,0.00,VWS V14.01,2013-02-25 20:20:00,
2013-02-25 14:25:00,79.2,73.2,29.81,SSE,151,11.0,17.0,82,0.00,,,0.00,VWS V14.01,2013-02-25 20:25:00,
2013-02-25 14:30:00,79.5,73.5,29.81,ESE,120,13.0,13.0,82,0.00,,,0.00,VWS V14.01,2013-02-25 20:30:00,
2013-02-25 14:35:00,79.2,73.2,29.81,SE,127,9.0,15.0,82,0.00,,,0.00,VWS V14.01,2013-02-25 20:35:00,
2013-02-25 14:40:00,79.1,73.1,29.81,SE,134,13.0,15.0,82,0.00,,,0.00,VWS V14.01,2013-02-25 20:40:00,
2013-02-25 14:45:00,79.2,73.2,29.80,ESE,117,8.0,15.0,82,0.00,,,0.00,VWS V14.01,2013-02-25 20:45:00,
2013-02-25 14:50:00,79.5,73.2,29.80,East,101,7.0,15.0,81,0.00,,,0.00,VWS V14.01,2013-02-25 20:50:00,
2013-02-25 14:55:00,79.8,73.4,29.80,SE,136,11.0,16.0,81,0.00,,,0.00,VWS V14.01,2013-02-25 20:55:00,
2013-02-25 15:00:00,80.1,73.4,29.80,ESE,120,10.0,16.0,80,0.00,,,0.00,VWS V14.01,2013-02-25 21:00:00,
2013-02-25 15:05:00,80.0,73.3,29.80,ESE,121,5.0,16.0,80,0.00,,,0.00,VWS V14.01,2013-02-25 21:05:00,
2013-02-25 15:10:00,79.8,73.1,29.80,East,82,9.0,16.0,80,0.00,,,0.00,VWS V14.01,2013-02-25 21:10:00,
2013-02-25 15:15:00,79.7,73.0,29.80,East,95,8.0,16.0,80,0.00,,,0.00,VWS V14.01,2013-02-25 21:15:00,
2013-02-25 15:20:00,79.4,72.7,29.80,SSE,160,10.0,16.0,80,0.00,,,0.00,VWS V14.01,2013-02-25 21:20:00,
2013-02-25 15:25:00,78.8,72.8,29.80,SE,127,4.0,16.0,82,0.00,,,0.00,VWS V14.01,2013-02-25 21:25:00,
2013-02-25 15:30:00,78.5,72.9,29.80,West,267,3.0,5.0,83,0.00,,,0.00,VWS V14.01,2013-02-25 21:30:00,
2013-02-25 15:35:00,78.3,72.7,29.80,ESE,116,16.0,16.0,83,0.00,,,0.00,VWS V14.01,2013-02-25 21:35:00,
2013-02-25 15:40:00,78.2,73.0,29.80,East,84,7.0,16.0,84,0.00,,,0.00,VWS V14.01,2013-02-25 21:40:00,
2013-02-25 15:45:00,78.1,73.2,29.80,SE,125,6.0,16.0,85,0.00,,,0.00,VWS V14.01,2013-02-25 21:45:00,
2013-02-25 15:50:00,78.3,73.4,29.79,ESE,102,8.0,16.0,85,0.00,,,0.00,VWS V14.01,2013-02-25 21:50:00,
2013-02-25 15:55:00,78.3,73.4,29.79,SE,138,9.0,18.0,85,0.00,,,0.00,VWS V14.01,2013-02-25 21:55:00,
2013-02-25 16:00:00,78.4,73.2,29.79,East,84,12.0,15.0,84,0.00,,,0.00,VWS V14.01,2013-02-25 22:00:00,
2013-02-25 16:05:00,78.6,73.4,29.79,SE,134,10.0,17.0,84,0.00,,,0.00,VWS V14.01,2013-02-25 22:05:00,
2013-02-25 16:10:00,78.3,73.1,29.79,ESE,102,11.0,18.0,84,0.00,,,0.00,VWS V14.01,2013-02-25 22:10:00,
2013-02-25 16:15:00,78.1,73.2,29.79,ESE,123,8.0,18.0,85,0.00,,,0.00,VWS V14.01,2013-02-25 22:15:00,
2013-02-25 16:20:00,77.9,73.4,29.79,SE,146,8.0,18.0,86,0.00,,,0.00,VWS V14.01,2013-02-25 22:20:00,
2013-02-25 16:25:00,77.8,73.3,29.79,SE,124,5.0,18.0,86,0.00,,,0.00,VWS V14.01,2013-02-25 22:25:00,
2013-02-25 16:30:00,77.9,72.7,29.79,SE,125,6.0,6.0,84,0.00,,,0.00,VWS V14.01,2013-02-25 22:30:00,
2013-02-25 16:36:00,77.7,71.4,29.79,SSW,205,6.0,13.0,81,0.00,,,0.00,VWS V14.01,2013-02-25 22:36:00,
2013-02-25 16:41:00,77.3,69.9,29.79,SSW,203,3.0,14.0,78,0.00,,,0.00,VWS V14.01,2013-02-25 22:41:00,
2013-02-25 16:46:00,77.0,69.6,29.79,ESE,102,6.0,16.0,78,0.00,,,0.00,VWS V14.01,2013-02-25 22:46:00,
2013-02-25 16:51:00,76.8,69.4,29.79,SE,136,9.0,16.0,78,0.00,,,0.00,VWS V14.01,2013-02-25 22:51:00,
2013-02-25 16:56:00,76.6,69.2,29.79,ESE,115,13.0,16.0,78,0.00,,,0.00,VWS V14.01,2013-02-25 22:56:00,
2013-02-25 17:00:00,75.0,71.9,29.80,SSE,149,4.0,12.0,90,0.00,,,0.00,VWS V14.01,2013-02-25 23:00:00,
2013-02-25 17:01:00,76.2,69.6,29.79,East,96,7.0,14.0,80,0.00,,,0.00,VWS V14.01,2013-02-25 23:01:00,
2013-02-25 17:06:00,75.9,70.0,29.80,East,86,4.0,14.0,82,0.00,,,0.00,VWS V14.01,2013-02-25 23:06:00,
2013-02-25 17:11:00,75.6,70.4,29.80,South,174,4.0,14.0,84,0.00,,,0.00,VWS V14.01,2013-02-25 23:11:00,
2013-02-25 17:16:00,75.4,70.6,29.80,SSE,153,9.0,14.0,85,0.00,,,0.00,VWS V14.01,2013-02-25 23:16:00,
2013-02-25 17:21:00,75.3,70.8,29.80,SE,141,7.0,14.0,86,0.00,,,0.00,VWS V14.01,2013-02-25 23:21:00,
2013-02-25 17:26:00,75.2,71.1,29.80,SE,125,5.0,14.0,87,0.00,,,0.00,VWS V14.01,2013-02-25 23:26:00,
2013-02-25 17:30:00,75.0,71.2,29.81,SSW,198,8.0,14.0,88,0.00,,,0.00,VWS V14.01,2013-02-25 23:30:00,
2013-02-25 17:31:00,75.1,71.0,29.80,South,187,8.0,10.0,87,0.00,,,0.00,VWS V14.01,2013-02-25 23:31:00,
2013-02-25 17:36:00,75.1,71.3,29.80,SSE,162,5.0,10.0,88,0.00,,,0.00,VWS V14.01,2013-02-25 23:36:00,
2013-02-25 17:41:00,75.2,71.4,29.80,SSE,151,4.0,10.0,88,0.00,,,0.00,VWS V14.01,2013-02-25 23:41:00,
2013-02-25 17:46:00,75.1,71.6,29.80,ESE,107,8.0,10.0,89,0.00,,,0.00,VWS V14.01,2013-02-25 23:46:00,
2013-02-25 17:51:00,75.1,71.6,29.80,SE,132,7.0,12.0,89,0.00,,,0.00,VWS V14.01,2013-02-25 23:51:00,
2013-02-25 17:56:00,75.0,71.9,29.80,SSW,210,2.0,12.0,90,0.00,,,0.00,VWS V14.01,2013-02-25 23:56:00,
2013-02-25 18:00:00,74.7,70.9,29.81,SE,136,6.0,11.0,88,0.00,,,0.00,VWS V14.01,2013-02-26 00:00:00,
2013-02-25 18:01:00,74.9,71.8,29.80,SSE,154,8.0,10.0,90,0.00,,,0.00,VWS V14.01,2013-02-26 00:01:00,
2013-02-25 18:06:00,74.9,71.8,29.80,SE,138,3.0,10.0,90,0.00,,,0.00,VWS V14.01,2013-02-26 00:06:00,
2013-02-25 18:11:00,74.9,71.4,29.80,SSE,163,4.0,10.0,89,0.00,,,0.00,VWS V14.01,2013-02-26 00:11:00,
2013-02-25 18:16:00,74.9,71.4,29.80,ESE,123,5.0,12.0,89,0.00,,,0.00,VWS V14.01,2013-02-26 00:16:00,
2013-02-25 18:21:00,75.0,71.2,29.80,South,191,5.0,12.0,88,0.00,,,0.00,VWS V14.01,2013-02-26 00:21:00,
2013-02-25 18:26:00,75.0,71.2,29.81,SSW,213,5.0,14.0,88,0.00,,,0.00,VWS V14.01,2013-02-26 00:26:00,
2013-02-25 18:30:00,74.2,70.8,29.82,SSE,148,4.0,10.0,89,0.00,,,0.00,VWS V14.01,2013-02-26 00:30:00,
2013-02-25 18:31:00,75.0,71.2,29.81,SSW,211,4.0,8.0,88,0.00,,,0.00,VWS V14.01,2013-02-26 00:31:00,
2013-02-25 18:36:00,75.0,71.2,29.81,South,177,8.0,10.0,88,0.00,,,0.00,VWS V14.01,2013-02-26 00:36:00,
2013-02-25 18:41:00,75.0,71.2,29.81,SSE,162,5.0,11.0,88,0.00,,,0.00,VWS V14.01,2013-02-26 00:41:00,
2013-02-25 18:46:00,75.0,71.2,29.82,SE,146,5.0,11.0,88,0.00,,,0.00,VWS V14.01,2013-02-26 00:46:00,
2013-02-25 18:51:00,74.9,71.1,29.82,SE,130,3.0,11.0,88,0.00,,,0.00,VWS V14.01,2013-02-26 00:51:00,
2013-02-25 18:56:00,74.8,71.0,29.82,SE,130,3.0,11.0,88,0.00,,,0.00,VWS V14.01,2013-02-26 00:56:00,
2013-02-25 19:00:00,73.9,70.5,29.82,South,185,3.0,9.0,89,0.00,,,0.00,VWS V14.01,2013-02-26 01:00:00,
2013-02-25 19:01:00,74.7,70.9,29.81,ESE,110,3.0,6.0,88,0.00,,,0.00,VWS V14.01,2013-02-26 01:01:00,
2013-02-25 19:06:00,74.6,70.8,29.82,SW,214,4.0,7.0,88,0.00,,,0.00,VWS V14.01,2013-02-26 01:06:00,
2013-02-25 19:11:00,74.4,70.9,29.82,SSW,212,3.0,7.0,89,0.00,,,0.00,VWS V14.01,2013-02-26 01:11:00,
2013-02-25 19:16:00,74.4,70.9,29.82,SSE,168,5.0,10.0,89,0.00,,,0.00,VWS V14.01,2013-02-26 01:16:00,
2013-02-25 19:21:00,74.3,70.8,29.82,SE,143,4.0,10.0,89,0.00,,,0.00,VWS V14.01,2013-02-26 01:21:00,
2013-02-25 19:26:00,74.2,70.8,29.82,SSE,148,9.0,10.0,89,0.00,,,0.00,VWS V14.01,2013-02-26 01:26:00,
2013-02-25 19:30:00,73.5,70.4,29.83,SE,138,3.0,6.0,90,0.00,,,0.00,VWS V14.01,2013-02-26 01:30:00,
2013-02-25 19:32:00,74.1,70.7,29.82,SE,141,2.0,5.0,89,0.00,,,0.00,VWS V14.01,2013-02-26 01:32:00,
2013-02-25 19:37:00,74.1,70.7,29.82,South,190,3.0,8.0,89,0.00,,,0.00,VWS V14.01,2013-02-26 01:37:00,
2013-02-25 19:42:00,74.1,70.7,29.82,SE,131,5.0,9.0,89,0.00,,,0.00,VWS V14.01,2013-02-26 01:42:00,
2013-02-25 19:47:00,74.1,70.7,29.82,SE,139,4.0,9.0,89,0.00,,,0.00,VWS V14.01,2013-02-26 01:47:00,
2013-02-25 19:52:00,74.0,70.6,29.82,SE,143,6.0,9.0,89,0.00,,,0.00,VWS V14.01,2013-02-26 01:52:00,
2013-02-25 19:57:00,74.0,70.6,29.82,SSW,199,2.0,9.0,89,0.00,,,0.00,VWS V14.01,2013-02-26 01:57:00,
2013-02-25 20:00:00,73.4,70.3,29.83,SSE,158,2.0,9.0,90,0.00,,,0.00,VWS V14.01,2013-02-26 02:00:00,
2013-02-25 20:02:00,73.9,70.5,29.83,ESE,119,5.0,5.0,89,0.00,,,0.00,VWS V14.01,2013-02-26 02:02:00,
2013-02-25 20:07:00,73.9,70.5,29.83,SE,141,3.0,6.0,89,0.00,,,0.00,VWS V14.01,2013-02-26 02:07:00,
2013-02-25 20:12:00,73.8,70.4,29.83,SE,124,2.0,6.0,89,0.00,,,0.00,VWS V14.01,2013-02-26 02:12:00,
2013-02-25 20:17:00,73.7,70.3,29.83,South,177,5.0,6.0,89,0.00,,,0.00,VWS V14.01,2013-02-26 02:17:00,
2013-02-25 20:22:00,73.7,70.6,29.83,SSE,168,5.0,6.0,90,0.00,,,0.00,VWS V14.01,2013-02-26 02:22:00,
2013-02-25 20:27:00,73.5,70.4,29.83,SSE,160,4.0,6.0,90,0.00,,,0.00,VWS V14.01,2013-02-26 02:27:00,
2013-02-25 20:30:00,73.1,70.6,29.84,ESE,117,3.0,8.0,92,0.00,,,0.00,VWS V14.01,2013-02-26 02:30:00,
2013-02-25 20:32:00,73.5,70.4,29.83,SE,145,7.0,7.0,90,0.00,,,0.00,VWS V14.01,2013-02-26 02:32:00,
2013-02-25 20:37:00,73.6,70.5,29.83,SSE,153,3.0,9.0,90,0.00,,,0.00,VWS V14.01,2013-02-26 02:37:00,
2013-02-25 20:42:00,73.6,70.5,29.83,SE,136,3.0,9.0,90,0.00,,,0.00,VWS V14.01,2013-02-26 02:42:00,
2013-02-25 20:47:00,73.6,70.5,29.83,SE,143,5.0,9.0,90,0.00,,,0.00,VWS V14.01,2013-02-26 02:47:00,
2013-02-25 20:52:00,73.5,70.4,29.83,SE,143,2.0,9.0,90,0.00,,,0.00,VWS V14.01,2013-02-26 02:52:00,
2013-02-25 20:57:00,73.4,70.3,29.83,SSE,163,2.0,9.0,90,0.00,,,0.00,VWS V14.01,2013-02-26 02:57:00,
2013-02-25 21:00:00,73.2,70.4,29.83,SW,224,3.0,10.0,91,0.00,,,0.00,VWS V14.01,2013-02-26 03:00:00,
2013-02-25 21:02:00,73.3,70.2,29.83,SE,140,1.0,3.0,90,0.00,,,0.00,VWS V14.01,2013-02-26 03:02:00,
2013-02-25 21:07:00,73.3,70.5,29.83,SE,138,4.0,6.0,91,0.00,,,0.00,VWS V14.01,2013-02-26 03:07:00,
2013-02-25 21:12:00,73.2,70.4,29.83,SSE,148,3.0,6.0,91,0.00,,,0.00,VWS V14.01,2013-02-26 03:12:00,
2013-02-25 21:17:00,73.2,70.4,29.84,SE,142,4.0,8.0,91,0.00,,,0.00,VWS V14.01,2013-02-26 03:17:00,
2013-02-25 21:22:00,73.2,70.4,29.83,South,187,2.0,8.0,91,0.00,,,0.00,VWS V14.01,2013-02-26 03:22:00,
2013-02-25 21:27:00,73.1,70.3,29.84,SE,141,6.0,8.0,91,0.00,,,0.00,VWS V14.01,2013-02-26 03:27:00,
2013-02-25 21:30:00,73.0,70.2,29.82,SSE,165,4.0,11.0,91,0.00,,,0.00,VWS V14.01,2013-02-26 03:30:00,
2013-02-25 21:32:00,73.1,70.6,29.84,SSE,155,4.0,6.0,92,0.00,,,0.00,VWS V14.01,2013-02-26 03:32:00,
2013-02-25 21:37:00,73.1,70.6,29.83,East,95,4.0,8.0,92,0.00,,,0.00,VWS V14.01,2013-02-26 03:37:00,
2013-02-25 21:42:00,73.1,70.6,29.83,SE,134,6.0,9.0,92,0.00,,,0.00,VWS V14.01,2013-02-26 03:42:00,
2013-02-25 21:47:00,73.2,70.4,29.83,SE,143,3.0,9.0,91,0.00,,,0.00,VWS V14.01,2013-02-26 03:47:00,
2013-02-25 21:52:00,73.2,70.4,29.83,SE,132,3.0,10.0,91,0.00,,,0.00,VWS V14.01,2013-02-26 03:52:00,
2013-02-25 21:57:00,73.2,70.4,29.83,South,181,6.0,10.0,91,0.00,,,0.00,VWS V14.01,2013-02-26 03:57:00,
2013-02-25 22:00:00,73.0,70.5,29.82,SE,130,8.0,13.0,92,0.00,,,0.00,VWS V14.01,2013-02-26 04:00:00,
2013-02-25 22:02:00,73.2,70.4,29.83,SE,145,8.0,8.0,91,0.00,,,0.00,VWS V14.01,2013-02-26 04:02:00,
2013-02-25 22:07:00,73.2,70.4,29.82,SSE,150,5.0,10.0,91,0.00,,,0.00,VWS V14.01,2013-02-26 04:07:00,
2013-02-25 22:12:00,73.2,70.4,29.82,South,177,6.0,10.0,91,0.00,,,0.00,VWS V14.01,2013-02-26 04:12:00,
2013-02-25 22:17:00,73.1,70.3,29.82,SE,132,5.0,10.0,91,0.00,,,0.00,VWS V14.01,2013-02-26 04:17:00,
2013-02-25 22:22:00,73.1,70.3,29.82,SSE,155,3.0,10.0,91,0.00,,,0.00,VWS V14.01,2013-02-26 04:22:00,
2013-02-25 22:27:00,73.0,70.2,29.82,SE,136,7.0,11.0,91,0.00,,,0.00,VWS V14.01,2013-02-26 04:27:00,
2013-02-25 22:30:00,72.5,70.4,29.81,SSE,158,5.0,13.0,93,0.00,,,0.00,VWS V14.01,2013-02-26 04:30:00,
2013-02-25 22:32:00,73.0,70.2,29.82,SSW,200,4.0,7.0,91,0.00,,,0.00,VWS V14.01,2013-02-26 04:32:00,
2013-02-25 22:37:00,73.0,70.2,29.82,South,181,6.0,10.0,91,0.00,,,0.00,VWS V14.01,2013-02-26 04:37:00,
2013-02-25 22:42:00,73.0,70.2,29.82,SW,232,9.0,11.0,91,0.00,,,0.00,VWS V14.01,2013-02-26 04:42:00,
2013-02-25 22:47:00,73.0,70.5,29.82,SE,146,6.0,11.0,92,0.00,,,0.00,VWS V14.01,2013-02-26 04:47:00,
2013-02-25 22:52:00,73.0,70.5,29.82,SE,138,7.0,13.0,92,0.00,,,0.00,VWS V14.01,2013-02-26 04:52:00,
2013-02-25 22:57:00,73.0,70.5,29.82,ESE,123,6.0,13.0,92,0.00,,,0.00,VWS V14.01,2013-02-26 04:57:00,
2013-02-25 23:00:00,73.0,70.5,29.82,South,180,6.0,13.0,92,0.00,,,0.00,VWS V14.01,2013-02-26 05:00:00,
2013-02-25 23:05:00,72.9,70.4,29.82,SSE,153,7.0,10.0,92,0.00,,,0.00,VWS V14.01,2013-02-26 05:05:00,
2013-02-25 23:10:00,72.9,70.8,29.82,South,187,2.0,11.0,93,0.00,,,0.00,VWS V14.01,2013-02-26 05:10:00,
2013-02-25 23:15:00,72.8,70.7,29.82,SSW,201,7.0,11.0,93,0.00,,,0.00,VWS V14.01,2013-02-26 05:15:00,
2013-02-25 23:20:00,72.7,70.6,29.82,SW,229,8.0,13.0,93,0.00,,,0.00,VWS V14.01,2013-02-26 05:20:00,
2013-02-25 23:25:00,72.7,70.6,29.82,SE,136,4.0,13.0,93,0.00,,,0.00,VWS V14.01,2013-02-26 05:25:00,
2013-02-25 23:30:00,72.5,70.4,29.81,SSE,158,5.0,13.0,93,0.00,,,0.00,VWS V14.01,2013-02-26 05:30:00,
2013-02-25 23:35:00,72.4,70.3,29.81,SSW,203,3.0,8.0,93,0.00,,,0.00,VWS V14.01,2013-02-26 05:35:00,
2013-02-25 23:40:00,72.3,70.2,29.81,SSE,160,5.0,8.0,93,0.00,,,0.00,VWS V14.01,2013-02-26 05:40:00,
2013-02-25 23:45:00,72.2,70.1,29.81,SSE,155,3.0,8.0,93,0.00,,,0.00,VWS V14.01,2013-02-26 05:45:00,
2013-02-25 23:50:00,72.0,70.2,29.81,South,185,3.0,8.0,94,0.00,,,0.00,VWS V14.01,2013-02-26 05:50:00,
2013-02-25 23:55:00,72.0,70.2,29.81,SSE,158,4.0,8.0,94,0.00,,,0.00,VWS V14.01,2013-02-26 05:55:00,